SWH weather

Swan Hill Airport
Victoria, Australia

Public forecast

Using degrees Celsius for public forecast. Weather courtesy of forecast.io.

Closest aviation weather report (METAR) to Swan Hill Airport

Closest report is Mildura Airport, 99.1 nm (183.6 km) NW. Retrieved 2019/10/18 09:30 UTC (10 minutes ago):

YMIA 180930Z AUTO 24013KT 5000 // SCT001 21/03 Q1015

Closest aviation forecast (TAF) to Swan Hill Airport

Forecast is more than 6 hours old.

Closest forecast is Wangaratta Airport, 148.7 nm (275.3 km) ESE. Retrieved 2019-10-18 02:33 UTC (7 hours ago):

TAF YWGT 180108Z 1802/1814 32014KT CAVOK FM181000 28008KT CAVOK